Time;durP1;ratioP1;P1;durP2;ratioP2;P2;SDS_P1;SDS_P2;PMS_P1;PMS_P2;Temp;Humidity;BMP_temperature;BMP_pressure;BME280_temperature;BME280_humidity;BME280_pressure;Samples;Min_cycle;Max_cycle;Signal;HPM_P1;HPM_P2
2023/01/10 00:01:50;;;;;;;;;;;;;;;;;;4995318;28;19910;-25
2023/01/10 00:04:16;;;;;;;;;;;;;;;;;;5011379;28;19921;-24
2023/01/10 00:06:42;;;;;;;;;;;;;;;;;;5014817;28;19914;-24
2023/01/10 00:09:08;;;;;;;;;;;;;;;;;;5014919;28;20348;-24
2023/01/10 00:14:18;;;;;;;;;;;;;;;;;;5014779;28;20008;-24
2023/01/10 00:16:44;;;;;;;;;;;;;;;;;;5014811;28;19936;-24
2023/01/10 00:19:10;;;;;;;;;;;;;;;;;;5013833;28;19921;-24
2023/01/10 00:21:36;;;;;;;;;;;;;;;;;;5014989;28;19913;-24
2023/01/10 00:24:17;;;;;;;;;;;;;;;;;;5014697;28;19910;-23
2023/01/10 00:26:45;;;;;;;;;;;;;;;;;;5014980;28;19921;-24
2023/01/10 00:29:11;;;;;;;;;;;;;;;;;;5014644;28;19971;-24
2023/01/10 00:31:37;;;;;;;;;;;;;;;;;;5014597;28;19913;-24
2023/01/10 00:34:03;;;;;;;;;;;;;;;;;;5014542;28;20048;-24
2023/01/10 00:36:29;;;;;;;;;;;;;;;;;;5014503;28;19928;-24
2023/01/10 00:38:55;;;;;;;;;;;;;;;;;;5014626;28;19910;-24
2023/01/10 00:44:05;;;;;;;;;;;;;;;;;;5014493;28;19920;-24
2023/01/10 00:46:31;;;;;;;;;;;;;;;;;;5014489;28;20234;-24
2023/01/10 00:48:58;;;;;;;;;;;;;;;;;;5014576;28;20256;-24
2023/01/10 00:51:24;;;;;;;;;;;;;;;;;;5014485;28;19928;-24
2023/01/10 00:53:50;;;;;;;;;;;;;;;;;;5013400;28;20399;-24
2023/01/10 00:56:16;;;;;;;;;;;;;;;;;;5014684;28;19917;-24
2023/01/10 00:58:43;;;;;;;;;;;;;;;;;;5014386;28;20312;-23
2023/01/10 01:01:09;;;;;;;;;;;;;;;;;;5014355;28;19920;-24
2023/01/10 01:03:35;;;;;;;;;;;;;;;;;;5014205;28;19932;-24
2023/01/10 01:06:01;;;;;;;;;;;;;;;;;;5013291;28;19910;-24
2023/01/10 01:08:27;;;;;;;;;;;;;;;;;;5014353;28;19914;-24
2023/01/10 01:10:53;;;;;;;;;;;;;;;;;;5014343;28;19914;-24
2023/01/10 01:13:19;;;;;;;;;;;;;;;;;;5014206;28;20253;-24
2023/01/10 01:15:45;;;;;;;;;;;;;;;;;;5014495;28;19928;-24
2023/01/10 01:18:11;;;;;;;;;;;;;;;;;;5015508;28;19913;-24
2023/01/10 01:20:37;;;;;;;;;;;;;;;;;;5017963;28;19981;-24
2023/01/10 01:23:03;;;;;;;;;;;;;;;;;;5017723;28;19914;-24
2023/01/10 01:25:29;;;;;;;;;;;;;;;;;;5017959;28;19952;-24
2023/01/10 01:27:55;;;;;;;;;;;;;;;;;;5017708;28;19913;-24
2023/01/10 01:30:21;;;;;;;;;;;;;;;;;;5017629;28;19918;-24
2023/01/10 01:32:48;;;;;;;;;;;;;;;;;;5017755;28;19919;-24
2023/01/10 01:35:14;;;;;;;;;;;;;;;;;;5017745;28;19995;-24
2023/01/10 01:37:40;;;;;;;;;;;;;;;;;;5017499;28;19910;-24
2023/01/10 01:40:06;;;;;;;;;;;;;;;;;;5017632;28;20039;-24
2023/01/10 01:42:32;;;;;;;;;;;;;;;;;;5017255;28;19910;-25
2023/01/10 01:44:58;;;;;;;;;;;;;;;;;;5016294;28;20256;-24
2023/01/10 01:47:24;;;;;;;;;;;;;;;;;;5017271;28;19918;-24
2023/01/10 01:49:50;;;;;;;;;;;;;;;;;;5017510;28;20000;-24
2023/01/10 01:52:16;;;;;;;;;;;;;;;;;;5017062;28;20363;-24
2023/01/10 01:54:42;;;;;;;;;;;;;;;;;;5016962;28;19921;-24
2023/01/10 01:57:08;;;;;;;;;;;;;;;;;;5017088;28;19914;-24
2023/01/10 01:59:34;;;;;;;;;;;;;;;;;;5017319;28;20299;-24
2023/01/10 02:02:00;;;;;;;;;;;;;;;;;;5015955;28;20364;-24
2023/01/10 02:04:26;;;;;;;;;;;;;;;;;;5016739;28;20376;-24
2023/01/10 02:06:52;;;;;;;;;;;;;;;;;;5016950;28;19972;-24
2023/01/10 02:09:18;;;;;;;;;;;;;;;;;;5015854;28;20310;-24
2023/01/10 02:11:44;;;;;;;;;;;;;;;;;;5016776;28;19914;-24
2023/01/10 02:14:10;;;;;;;;;;;;;;;;;;5016987;28;20001;-24
2023/01/10 02:16:36;;;;;;;;;;;;;;;;;;5016676;28;20012;-24
2023/01/10 02:19:02;;;;;;;;;;;;;;;;;;5016942;28;19914;-24
2023/01/10 02:21:30;;;;;;;;;;;;;;;;;;5016601;28;19913;-24
2023/01/10 02:23:56;;;;;;;;;;;;;;;;;;5016507;28;19945;-24
2023/01/10 02:26:22;;;;;;;;;;;;;;;;;;5016504;28;19913;-24
2023/01/10 02:28:48;;;;;;;;;;;;;;;;;;5015188;28;19909;-24
2023/01/10 02:31:14;;;;;;;;;;;;;;;;;;5015620;28;20363;-24
2023/01/10 02:33:40;;;;;;;;;;;;;;;;;;5016296;28;19924;-24
2023/01/10 02:36:06;;;;;;;;;;;;;;;;;;5016264;28;19927;-24
2023/01/10 02:38:32;;;;;;;;;;;;;;;;;;5016349;28;19992;-24
2023/01/10 02:40:58;;;;;;;;;;;;;;;;;;5016546;28;19967;-24
2023/01/10 02:43:24;;;;;;;;;;;;;;;;;;5016174;28;19918;-24
2023/01/10 02:45:50;;;;;;;;;;;;;;;;;;5016213;28;20014;-24
2023/01/10 02:48:16;;;;;;;;;;;;;;;;;;5015200;28;19925;-24
2023/01/10 02:50:43;;;;;;;;;;;;;;;;;;5016155;28;20248;-24
2023/01/10 02:53:09;;;;;;;;;;;;;;;;;;5016157;28;19921;-24
2023/01/10 02:55:35;;;;;;;;;;;;;;;;;;5016164;28;20316;-24
2023/01/10 02:58:01;;;;;;;;;;;;;;;;;;5016199;28;19987;-31
2023/01/10 03:00:27;;;;;;;;;;;;;;;;;;5016125;28;19939;-24
2023/01/10 03:02:57;;;;;;;;;;;;;;;;;;5015644;28;19924;-24
2023/01/10 03:05:23;;;;;;;;;;;;;;;;;;5015804;28;19914;-24
2023/01/10 03:07:49;;;;;;;;;;;;;;;;;;5015811;28;19909;-24
2023/01/10 03:10:15;;;;;;;;;;;;;;;;;;5015679;28;19964;-23
2023/01/10 03:12:41;;;;;;;;;;;;;;;;;;5015812;28;19917;-24
2023/01/10 03:15:07;;;;;;;;;;;;;;;;;;5015846;28;19980;-24
2023/01/10 03:17:33;;;;;;;;;;;;;;;;;;5015584;28;19917;-24
2023/01/10 03:19:59;;;;;;;;;;;;;;;;;;5015865;28;19932;-24
2023/01/10 03:22:25;;;;;;;;;;;;;;;;;;5015496;28;20012;-24
2023/01/10 03:24:51;;;;;;;;;;;;;;;;;;5015464;28;19945;-24
2023/01/10 03:27:18;;;;;;;;;;;;;;;;;;5015488;28;19921;-24
2023/01/10 03:29:44;;;;;;;;;;;;;;;;;;5015720;28;20141;-24
2023/01/10 03:32:10;;;;;;;;;;;;;;;;;;5015380;28;19913;-24
2023/01/10 03:34:36;;;;;;;;;;;;;;;;;;5015276;28;19964;-24
2023/01/10 03:37:02;;;;;;;;;;;;;;;;;;5015512;28;20307;-24
2023/01/10 03:39:28;;;;;;;;;;;;;;;;;;5015279;28;20000;-24
2023/01/10 03:41:54;;;;;;;;;;;;;;;;;;5013861;28;19967;-24
2023/01/10 03:47:05;;;;;;;;;;;;;;;;;;5015506;28;19924;-24
2023/01/10 03:49:31;;;;;;;;;;;;;;;;;;5015332;28;19913;-24
2023/01/10 03:51:57;;;;;;;;;;;;;;;;;;5015091;28;19972;-24
2023/01/10 03:54:23;;;;;;;;;;;;;;;;;;5015063;28;19996;-24
2023/01/10 03:56:49;;;;;;;;;;;;;;;;;;5014050;28;20012;-23
2023/01/10 03:59:15;;;;;;;;;;;;;;;;;;5015280;28;19924;-24
2023/01/10 04:01:41;;;;;;;;;;;;;;;;;;5014950;28;20268;-24
2023/01/10 04:04:07;;;;;;;;;;;;;;;;;;5014806;28;19922;-24
2023/01/10 04:06:33;;;;;;;;;;;;;;;;;;5014949;28;19936;-24
2023/01/10 04:08:59;;;;;;;;;;;;;;;;;;5013956;28;19909;-24
2023/01/10 04:11:25;;;;;;;;;;;;;;;;;;5014941;28;20301;-24
2023/01/10 04:13:51;;;;;;;;;;;;;;;;;;5014832;28;19924;-24
2023/01/10 04:16:19;;;;;;;;;;;;;;;;;;5014770;28;20255;-23
2023/01/10 04:18:45;;;;;;;;;;;;;;;;;;5015131;28;19917;-24
2023/01/10 04:21:11;;;;;;;;;;;;;;;;;;5014865;28;19913;-24
2023/01/10 04:23:37;;;;;;;;;;;;;;;;;;5015025;28;19920;-24
2023/01/10 04:26:03;;;;;;;;;;;;;;;;;;5014711;28;19945;-24
2023/01/10 04:28:29;;;;;;;;;;;;;;;;;;5015020;28;19953;-24
2023/01/10 04:30:55;;;;;;;;;;;;;;;;;;5014700;28;20332;-24
2023/01/10 04:33:21;;;;;;;;;;;;;;;;;;5014848;28;19920;-24
2023/01/10 04:35:47;;;;;;;;;;;;;;;;;;5014490;28;19917;-24
2023/01/10 04:38:13;;;;;;;;;;;;;;;;;;5014458;28;20352;-24
2023/01/10 04:40:39;;;;;;;;;;;;;;;;;;5014698;28;19913;-24
2023/01/10 04:43:05;;;;;;;;;;;;;;;;;;5014671;28;20287;-24
2023/01/10 04:45:31;;;;;;;;;;;;;;;;;;5014451;28;19924;-24
2023/01/10 04:47:58;;;;;;;;;;;;;;;;;;5014367;28;19913;-24
2023/01/10 04:50:24;;;;;;;;;;;;;;;;;;5014641;28;19928;-24
2023/01/10 04:52:50;;;;;;;;;;;;;;;;;;5014953;28;20241;-24
2023/01/10 04:55:16;;;;;;;;;;;;;;;;;;5018217;28;20008;-24
2023/01/10 04:57:42;;;;;;;;;;;;;;;;;;5017979;28;19956;-24
2023/01/10 05:00:08;;;;;;;;;;;;;;;;;;5017822;28;20025;-24
2023/01/10 05:02:34;;;;;;;;;;;;;;;;;;5017571;28;19972;-24
2023/01/10 05:05:00;;;;;;;;;;;;;;;;;;5017784;28;19909;-25
2023/01/10 05:07:26;;;;;;;;;;;;;;;;;;5018033;28;19919;-25
2023/01/10 05:09:52;;;;;;;;;;;;;;;;;;5016896;28;20316;-25
2023/01/10 05:12:18;;;;;;;;;;;;;;;;;;5016466;28;19937;-25
2023/01/10 05:14:44;;;;;;;;;;;;;;;;;;5017807;28;20226;-26
2023/01/10 05:17:10;;;;;;;;;;;;;;;;;;5018017;28;19960;-25
2023/01/10 05:19:36;;;;;;;;;;;;;;;;;;5017540;28;19910;-25
2023/01/10 05:22:02;;;;;;;;;;;;;;;;;;5017678;28;20011;-26
2023/01/10 05:24:28;;;;;;;;;;;;;;;;;;5016724;28;19914;-25
2023/01/10 05:26:54;;;;;;;;;;;;;;;;;;5017606;28;19917;-25
2023/01/10 05:29:20;;;;;;;;;;;;;;;;;;5017567;28;19913;-25
2023/01/10 05:31:47;;;;;;;;;;;;;;;;;;5017489;28;19960;-26
2023/01/10 05:34:13;;;;;;;;;;;;;;;;;;5017724;28;20013;-25
2023/01/10 05:36:39;;;;;;;;;;;;;;;;;;5017434;28;19921;-25
2023/01/10 05:39:05;;;;;;;;;;;;;;;;;;5017233;28;19914;-25
2023/01/10 05:41:31;;;;;;;;;;;;;;;;;;5017446;28;20356;-25
2023/01/10 05:43:57;;;;;;;;;;;;;;;;;;5017020;28;19913;-25
2023/01/10 05:46:23;;;;;;;;;;;;;;;;;;5017096;28;19975;-25
2023/01/10 05:48:49;;;;;;;;;;;;;;;;;;5017047;28;20058;-25
2023/01/10 05:51:15;;;;;;;;;;;;;;;;;;5017339;28;19971;-25
2023/01/10 05:53:42;;;;;;;;;;;;;;;;;;5016814;28;20349;-25
2023/01/10 05:56:08;;;;;;;;;;;;;;;;;;5016732;28;19917;-25
2023/01/10 05:58:34;;;;;;;;;;;;;;;;;;5016725;28;19927;-25
2023/01/10 06:01:00;;;;;;;;;;;;;;;;;;5016925;28;20008;-25
2023/01/10 06:03:26;;;;;;;;;;;;;;;;;;5005951;28;19984;-25
2023/01/10 06:05:52;;;;;;;;;;;;;;;;;;4997136;28;19924;-25
2023/01/10 06:08:18;;;;;;;;;;;;;;;;;;4995953;28;19968;-25
2023/01/10 06:10:44;;;;;;;;;;;;;;;;;;4995959;28;19918;-25
2023/01/10 06:13:11;;;;;;;;;;;;;;;;;;4995708;28;19910;-25
2023/01/10 06:15:37;;;;;;;;;;;;;;;;;;4996900;28;20357;-25
2023/01/10 06:18:03;;;;;;;;;;;;;;;;;;4996936;28;19918;-25
2023/01/10 06:20:28;;;;;;;;;;;;;;;;;;4996756;28;19941;-25
2023/01/10 06:22:55;;;;;;;;;;;;;;;;;;4996648;28;19918;-25
2023/01/10 06:25:21;;;;;;;;;;;;;;;;;;4996955;28;20276;-25
2023/01/10 06:27:47;;;;;;;;;;;;;;;;;;4996581;28;19909;-25
2023/01/10 06:30:13;;;;;;;;;;;;;;;;;;4996740;28;19914;-25
2023/01/10 06:32:39;;;;;;;;;;;;;;;;;;4996628;28;20041;-25
2023/01/10 06:35:05;;;;;;;;;;;;;;;;;;4996480;28;19918;-25
2023/01/10 06:37:31;;;;;;;;;;;;;;;;;;4996543;28;19925;-25
2023/01/10 06:39:57;;;;;;;;;;;;;;;;;;4996774;28;19914;-25
2023/01/10 06:42:23;;;;;;;;;;;;;;;;;;4996376;28;19968;-25
2023/01/10 06:44:49;;;;;;;;;;;;;;;;;;4996639;28;19910;-25
2023/01/10 06:47:15;;;;;;;;;;;;;;;;;;4995003;28;19937;-25
2023/01/10 06:49:41;;;;;;;;;;;;;;;;;;4996025;28;19910;-26
2023/01/10 06:52:07;;;;;;;;;;;;;;;;;;4996165;28;19960;-25
2023/01/10 06:54:33;;;;;;;;;;;;;;;;;;4995165;28;19949;-25
2023/01/10 06:56:59;;;;;;;;;;;;;;;;;;4995776;28;20341;-25
2023/01/10 06:59:25;;;;;;;;;;;;;;;;;;4995904;28;20200;-25
2023/01/10 07:01:51;;;;;;;;;;;;;;;;;;4995652;28;20342;-25
2023/01/10 07:04:17;;;;;;;;;;;;;;;;;;5012151;28;19921;-24
2023/01/10 07:06:44;;;;;;;;;;;;;;;;;;5015271;28;20340;-25
2023/01/10 07:09:10;;;;;;;;;;;;;;;;;;5015712;28;20048;-25
2023/01/10 07:11:36;;;;;;;;;;;;;;;;;;5015191;28;19914;-25
2023/01/10 07:14:02;;;;;;;;;;;;;;;;;;5014551;28;20320;-25
2023/01/10 07:16:30;;;;;;;;;;;;;;;;;;5013202;28;20210;-25
2023/01/10 07:18:57;;;;;;;;;;;;;;;;;;5014904;28;19953;-25
2023/01/10 07:21:23;;;;;;;;;;;;;;;;;;5014932;28;19920;-25
2023/01/10 07:23:49;;;;;;;;;;;;;;;;;;5014653;28;19945;-25
2023/01/10 07:26:16;;;;;;;;;;;;;;;;;;5014860;28;20345;-25
2023/01/10 07:28:42;;;;;;;;;;;;;;;;;;5014891;28;19984;-25
2023/01/10 07:31:08;;;;;;;;;;;;;;;;;;5014512;28;19996;-25
2023/01/10 07:33:34;;;;;;;;;;;;;;;;;;5014490;28;19960;-25
2023/01/10 07:36:00;;;;;;;;;;;;;;;;;;5014436;28;20362;-24
2023/01/10 07:38:26;;;;;;;;;;;;;;;;;;5014704;28;19909;-24
2023/01/10 07:40:52;;;;;;;;;;;;;;;;;;5014827;28;20055;-25
2023/01/10 07:43:18;;;;;;;;;;;;;;;;;;5014949;28;20011;-24
2023/01/10 07:45:44;;;;;;;;;;;;;;;;;;5015210;28;20004;-25
2023/01/10 07:48:10;;;;;;;;;;;;;;;;;;5015016;28;19975;-24
2023/01/10 07:50:36;;;;;;;;;;;;;;;;;;5013962;28;19914;-25
2023/01/10 07:53:02;;;;;;;;;;;;;;;;;;5014669;28;19971;-25
2023/01/10 07:55:28;;;;;;;;;;;;;;;;;;5013232;28;20264;-25
2023/01/10 07:57:55;;;;;;;;;;;;;;;;;;5014445;28;19913;-24
2023/01/10 08:00:21;;;;;;;;;;;;;;;;;;5014515;28;20258;-25
2023/01/10 08:02:47;;;;;;;;;;;;;;;;;;5014418;28;19932;-24
2023/01/10 08:05:13;;;;;;;;;;;;;;;;;;5014543;28;20416;-25
2023/01/10 08:07:39;;;;;;;;;;;;;;;;;;5014813;28;19945;-25
2023/01/10 08:10:05;;;;;;;;;;;;;;;;;;5014359;28;19925;-26
2023/01/10 08:12:31;;;;;;;;;;;;;;;;;;5014304;28;19910;-26
2023/01/10 08:14:57;;;;;;;;;;;;;;;;;;5014212;28;20011;-26
2023/01/10 08:17:23;;;;;;;;;;;;;;;;;;5013222;28;19918;-26
2023/01/10 08:19:49;;;;;;;;;;;;;;;;;;5014173;28;19919;-26
2023/01/10 08:22:15;;;;;;;;;;;;;;;;;;5014108;28;19910;-26
2023/01/10 08:24:41;;;;;;;;;;;;;;;;;;5014200;28;19940;-23
2023/01/10 08:27:07;;;;;;;;;;;;;;;;;;5015024;28;19957;-24
2023/01/10 08:29:33;;;;;;;;;;;;;;;;;;5018389;28;19914;-24
2023/01/10 08:31:59;;;;;;;;;;;;;;;;;;5018028;28;19945;-24
2023/01/10 08:34:25;;;;;;;;;;;;;;;;;;5018266;28;20256;-24
2023/01/10 08:36:51;;;;;;;;;;;;;;;;;;5018127;28;19913;-24
2023/01/10 08:39:17;;;;;;;;;;;;;;;;;;5018173;28;20250;-24
2023/01/10 08:41:43;;;;;;;;;;;;;;;;;;5016951;28;19913;-24
2023/01/10 08:44:12;;;;;;;;;;;;;;;;;;5018344;28;19910;-24
2023/01/10 08:46:38;;;;;;;;;;;;;;;;;;5017960;28;19914;-24
2023/01/10 08:49:04;;;;;;;;;;;;;;;;;;5016985;28;19961;-24
2023/01/10 08:51:30;;;;;;;;;;;;;;;;;;5017751;28;19985;-24
2023/01/10 08:53:56;;;;;;;;;;;;;;;;;;5017746;28;19916;-24
2023/01/10 08:56:22;;;;;;;;;;;;;;;;;;5017712;28;19917;-24
2023/01/10 08:58:48;;;;;;;;;;;;;;;;;;5018145;28;20285;-24
2023/01/10 09:01:14;;;;;;;;;;;;;;;;;;5017705;28;19922;-25
2023/01/10 09:03:40;;;;;;;;;;;;;;;;;;5017248;28;19930;-24
2023/01/10 09:06:07;;;;;;;;;;;;;;;;;;5017566;28;20328;-24
2023/01/10 09:08:33;;;;;;;;;;;;;;;;;;5017593;28;19924;-24
2023/01/10 09:10:59;;;;;;;;;;;;;;;;;;5017572;28;20245;-24
2023/01/10 09:13:25;;;;;;;;;;;;;;;;;;5017622;28;19924;-24
2023/01/10 09:15:51;;;;;;;;;;;;;;;;;;5017393;28;20329;-24
2023/01/10 09:18:17;;;;;;;;;;;;;;;;;;5017522;28;19917;-24
2023/01/10 09:20:44;;;;;;;;;;;;;;;;;;5017238;28;19914;-24
2023/01/10 09:23:10;;;;;;;;;;;;;;;;;;5016235;28;19963;-24
2023/01/10 09:25:36;;;;;;;;;;;;;;;;;;5016131;28;19917;-24
2023/01/10 09:28:02;;;;;;;;;;;;;;;;;;5017105;28;19913;-25
2023/01/10 09:30:28;;;;;;;;;;;;;;;;;;5016861;28;20304;-24
2023/01/10 09:32:54;;;;;;;;;;;;;;;;;;5016879;28;19917;-24
2023/01/10 09:35:20;;;;;;;;;;;;;;;;;;5016976;28;20260;-24
2023/01/10 09:37:46;;;;;;;;;;;;;;;;;;5017126;28;19913;-24
2023/01/10 09:40:12;;;;;;;;;;;;;;;;;;5016208;28;20332;-24
2023/01/10 09:42:38;;;;;;;;;;;;;;;;;;5016216;28;19910;-24
2023/01/10 09:45:04;;;;;;;;;;;;;;;;;;5016386;28;19921;-24
2023/01/10 09:47:32;;;;;;;;;;;;;;;;;;5016199;28;19922;-24
2023/01/10 09:49:58;;;;;;;;;;;;;;;;;;5016250;28;19913;-24
2023/01/10 09:52:24;;;;;;;;;;;;;;;;;;5016169;28;19924;-24
2023/01/10 09:54:50;;;;;;;;;;;;;;;;;;5016366;28;19940;-24
2023/01/10 09:57:16;;;;;;;;;;;;;;;;;;5015142;28;20325;-24
2023/01/10 09:59:42;;;;;;;;;;;;;;;;;;5016660;28;19925;-24
2023/01/10 10:02:08;;;;;;;;;;;;;;;;;;5015861;28;19925;-24
2023/01/10 10:04:34;;;;;;;;;;;;;;;;;;5015737;28;19917;-24
2023/01/10 10:06:59;;;;;;;;;;;;;;;;;;5015712;28;20028;-24
2023/01/10 10:09:26;;;;;;;;;;;;;;;;;;5015978;28;20304;-24
2023/01/10 10:11:51;;;;;;;;;;;;;;;;;;5014609;28;19917;-24
2023/01/10 10:14:17;;;;;;;;;;;;;;;;;;5014500;28;19918;-24
2023/01/10 10:16:43;;;;;;;;;;;;;;;;;;5015506;28;19996;-24
2023/01/10 10:19:09;;;;;;;;;;;;;;;;;;5015618;28;20012;-24
2023/01/10 10:21:35;;;;;;;;;;;;;;;;;;5015602;28;20321;-24
2023/01/10 10:24:02;;;;;;;;;;;;;;;;;;5015720;28;19917;-25
2023/01/10 10:26:27;;;;;;;;;;;;;;;;;;5016335;28;19953;-25
2023/01/10 10:28:53;;;;;;;;;;;;;;;;;;5016019;28;20429;-24
2023/01/10 10:31:20;;;;;;;;;;;;;;;;;;5016166;28;19913;-24
2023/01/10 10:33:46;;;;;;;;;;;;;;;;;;5016178;28;19913;-24
2023/01/10 10:36:12;;;;;;;;;;;;;;;;;;5016243;28;19913;-27
2023/01/10 10:38:38;;;;;;;;;;;;;;;;;;5015998;28;19940;-24
2023/01/10 10:41:04;;;;;;;;;;;;;;;;;;5016008;28;19925;-24
2023/01/10 10:43:30;;;;;;;;;;;;;;;;;;5016199;28;20355;-24
2023/01/10 10:45:56;;;;;;;;;;;;;;;;;;5015862;28;20360;-24
2023/01/10 10:48:22;;;;;;;;;;;;;;;;;;5015885;28;20016;-25
2023/01/10 10:50:48;;;;;;;;;;;;;;;;;;5014447;28;20008;-25
2023/01/10 10:53:17;;;;;;;;;;;;;;;;;;5015712;28;20348;-23
2023/01/10 10:55:43;;;;;;;;;;;;;;;;;;5014363;28;19988;-23
2023/01/10 10:58:09;;;;;;;;;;;;;;;;;;5015338;28;19918;-23
2023/01/10 11:00:35;;;;;;;;;;;;;;;;;;5015064;28;19952;-31
2023/01/10 11:03:01;;;;;;;;;;;;;;;;;;5014914;28;19953;-24
2023/01/10 11:05:27;;;;;;;;;;;;;;;;;;5015289;28;20390;-23
2023/01/10 11:07:53;;;;;;;;;;;;;;;;;;5014040;28;19909;-30
2023/01/10 11:12:55;;;;;;;;;;;;;;;;;;5112441;27;19934;-28
2023/01/10 11:15:21;;;;;;;;;;;;;;;;;;5112027;28;19912;-27
2023/01/10 11:17:47;;;;;;;;;;;;;;;;;;5111889;28;20258;-25
2023/01/10 11:20:13;;;;;;;;;;;;;;;;;;5112239;28;19912;-27
2023/01/10 11:22:39;;;;;;;;;;;;;;;;;;5111560;28;19919;-29
2023/01/10 11:25:05;;;;;;;;;;;;;;;;;;5111652;28;19941;-29
2023/01/10 11:27:31;;;;;;;;;;;;;;;;;;5111809;28;19912;-29
2023/01/10 11:29:57;;;;;;;;;;;;;;;;;;5112225;28;19923;-27
2023/01/10 11:32:23;;;;;;;;;;;;;;;;;;5110722;28;19916;-27
2023/01/10 11:34:49;;;;;;;;;;;;;;;;;;5111637;28;19912;-29
2023/01/10 11:37:15;;;;;;;;;;;;;;;;;;5110546;28;19923;-28
2023/01/10 11:39:41;;;;;;;;;;;;;;;;;;5111431;28;19912;-33
2023/01/10 11:42:07;;;;;;;;;;;;;;;;;;5111130;28;20242;-29
2023/01/10 11:44:33;;;;;;;;;;;;;;;;;;5111460;28;19952;-25
2023/01/10 11:46:59;;;;;;;;;;;;;;;;;;5111552;28;20378;-32
2023/01/10 11:49:25;;;;;;;;;;;;;;;;;;5111259;28;20348;-26
2023/01/10 11:51:51;;;;;;;;;;;;;;;;;;5111513;28;19923;-25
2023/01/10 11:54:17;;;;;;;;;;;;;;;;;;5111441;28;20355;-31
2023/01/10 11:56:43;;;;;;;;;;;;;;;;;;5111374;28;19954;-27
2023/01/10 11:59:11;;;;;;;;;;;;;;;;;;5110701;28;20208;-28
2023/01/10 12:01:37;;;;;;;;;;;;;;;;;;5110444;28;19939;-26
2023/01/10 12:04:03;;;;;;;;;;;;;;;;;;5110516;28;19912;-27
2023/01/10 12:06:29;;;;;;;;;;;;;;;;;;5110780;28;19927;-32
2023/01/10 12:08:56;;;;;;;;;;;;;;;;;;5110352;28;19927;-26
2023/01/10 12:11:26;;;;;;;;;;;;;;;;;;5118140;28;20006;-25
2023/01/10 12:13:52;;;;;;;;;;;;;;;;;;5130596;28;20291;-24
2023/01/10 12:16:18;;;;;;;;;;;;;;;;;;5130659;28;19912;-22
2023/01/10 12:18:44;;;;;;;;;;;;;;;;;;5130784;28;20383;-29
2023/01/10 12:21:10;;;;;;;;;;;;;;;;;;5130490;28;19943;-27
2023/01/10 12:23:40;;;;;;;;;;;;;;;;;;5120784;28;19934;-37
2023/01/10 12:26:06;;;;;;;;;;;;;;;;;;5117245;28;19973;-24
2023/01/10 12:28:32;;;;;;;;;;;;;;;;;;5117990;28;20233;-25
2023/01/10 12:30:58;;;;;;;;;;;;;;;;;;5117627;28;19932;-26
2023/01/10 12:33:24;;;;;;;;;;;;;;;;;;5117307;28;19990;-25
2023/01/10 12:35:50;;;;;;;;;;;;;;;;;;5117304;28;19988;-32
2023/01/10 12:38:18;;;;;;;;;;;;;;;;;;5116852;28;20408;-26
2023/01/10 12:40:45;;;;;;;;;;;;;;;;;;5116977;28;19915;-23
2023/01/10 12:45:55;;;;;;;;;;;;;;;;;;5117072;28;19926;-28
2023/01/10 12:48:21;;;;;;;;;;;;;;;;;;5117132;28;19912;-26
2023/01/10 12:50:50;;;;;;;;;;;;;;;;;;5116820;28;19930;-28
2023/01/10 12:53:16;;;;;;;;;;;;;;;;;;5116916;28;19907;-27
2023/01/10 12:55:42;;;;;;;;;;;;;;;;;;5116667;28;20234;-25
2023/01/10 12:58:08;;;;;;;;;;;;;;;;;;5116777;28;19915;-27
2023/01/10 13:00:34;;;;;;;;;;;;;;;;;;5116818;28;19991;-27
2023/01/10 13:03:00;;;;;;;;;;;;;;;;;;5117065;28;19943;-24
2023/01/10 13:05:26;;;;;;;;;;;;;;;;;;5116807;28;19919;-30
2023/01/10 13:07:52;;;;;;;;;;;;;;;;;;5116992;28;19908;-24
2023/01/10 13:10:18;;;;;;;;;;;;;;;;;;5117046;28;19912;-30
2023/01/10 13:12:44;;;;;;;;;;;;;;;;;;5116348;28;19920;-31
2023/01/10 13:15:10;;;;;;;;;;;;;;;;;;5117064;28;19911;-27
2023/01/10 13:17:36;;;;;;;;;;;;;;;;;;5117112;28;19997;-25
2023/01/10 13:20:02;;;;;;;;;;;;;;;;;;5116714;28;20062;-25
2023/01/10 13:22:28;;;;;;;;;;;;;;;;;;5098689;28;20107;-25
2023/01/10 13:24:54;;;;;;;;;;;;;;;;;;5116708;28;19918;-31
2023/01/10 13:27:20;;;;;;;;;;;;;;;;;;5116552;28;19912;-29
2023/01/10 13:29:47;;;;;;;;;;;;;;;;;;5116558;28;19965;-25
2023/01/10 13:32:13;;;;;;;;;;;;;;;;;;5116608;28;19911;-32
2023/01/10 13:34:39;;;;;;;;;;;;;;;;;;5115768;28;20319;-30
2023/01/10 13:37:05;;;;;;;;;;;;;;;;;;5116353;28;19916;-28
2023/01/10 13:39:31;;;;;;;;;;;;;;;;;;5116170;28;19914;-28
2023/01/10 13:44:42;;;;;;;;;;;;;;;;;;5116370;28;19922;-29
2023/01/10 13:47:08;;;;;;;;;;;;;;;;;;5098136;28;20009;-26
2023/01/10 13:49:34;;;;;;;;;;;;;;;;;;5117099;28;19939;-29
2023/01/10 13:52:00;;;;;;;;;;;;;;;;;;5115894;28;19926;-28
2023/01/10 13:54:26;;;;;;;;;;;;;;;;;;5115879;28;20002;-28
2023/01/10 13:56:52;;;;;;;;;;;;;;;;;;5115910;28;19957;-31
2023/01/10 14:04:47;;;;;;;;;;;;;;;;;;5115949;28;19922;-31
2023/01/10 14:07:13;;;;;;;;;;;;;;;;;;5116013;28;19908;-31
2023/01/10 14:09:39;;;;;;;;;;;;;;;;;;5116568;28;19994;-29
2023/01/10 14:12:05;;;;;;;;;;;;;;;;;;5115372;28;19927;-24
2023/01/10 14:14:31;;;;;;;;;;;;;;;;;;5115984;28;19912;-30
2023/01/10 14:16:57;;;;;;;;;;;;;;;;;;5115608;28;19908;-28
2023/01/10 14:19:23;;;;;;;;;;;;;;;;;;5115309;28;20243;-25
2023/01/10 14:21:49;;;;;;;;;;;;;;;;;;5115236;28;19923;-26
2023/01/10 14:24:15;;;;;;;;;;;;;;;;;;5116259;28;19911;-27
2023/01/10 14:26:42;;;;;;;;;;;;;;;;;;5115049;28;20346;-31
2023/01/10 14:29:11;;;;;;;;;;;;;;;;;;5115139;28;19912;-25
2023/01/10 14:31:37;;;;;;;;;;;;;;;;;;5115997;28;19922;-30
2023/01/10 14:34:04;;;;;;;;;;;;;;;;;;5115169;28;19912;-26
2023/01/10 14:36:30;;;;;;;;;;;;;;;;;;5115314;28;19912;-27
2023/01/10 14:38:56;;;;;;;;;;;;;;;;;;5097165;28;19916;-27
2023/01/10 14:41:23;;;;;;;;;;;;;;;;;;5115122;28;20003;-29
2023/01/10 14:43:50;;;;;;;;;;;;;;;;;;5114869;28;19938;-32
2023/01/10 14:46:16;;;;;;;;;;;;;;;;;;5115198;28;19922;-30
2023/01/10 14:48:42;;;;;;;;;;;;;;;;;;5114984;28;19912;-31
2023/01/10 14:51:08;;;;;;;;;;;;;;;;;;5115040;28;20019;-29
2023/01/10 14:53:34;;;;;;;;;;;;;;;;;;5096892;28;19964;-34
2023/01/10 14:56:00;;;;;;;;;;;;;;;;;;5114978;28;19912;-29
2023/01/10 14:58:26;;;;;;;;;;;;;;;;;;5114968;28;20330;-31
2023/01/10 15:00:52;;;;;;;;;;;;;;;;;;5114726;28;19976;-33
2023/01/10 15:03:18;;;;;;;;;;;;;;;;;;5114658;28;19908;-34
2023/01/10 15:05:44;;;;;;;;;;;;;;;;;;5114692;28;19969;-31
2023/01/10 15:08:10;;;;;;;;;;;;;;;;;;5114801;28;19919;-28
2023/01/10 15:10:36;;;;;;;;;;;;;;;;;;5114045;28;20207;-25
2023/01/10 15:13:02;;;;;;;;;;;;;;;;;;5113948;28;19969;-29
2023/01/10 15:15:28;;;;;;;;;;;;;;;;;;5114206;28;19972;-27
2023/01/10 15:17:54;;;;;;;;;;;;;;;;;;5114458;28;20061;-30
2023/01/10 15:20:20;;;;;;;;;;;;;;;;;;5114697;28;19912;-26
2023/01/10 15:22:46;;;;;;;;;;;;;;;;;;5114659;28;20010;-30
2023/01/10 15:25:12;;;;;;;;;;;;;;;;;;5114956;28;19965;-30
2023/01/10 15:27:39;;;;;;;;;;;;;;;;;;5114678;28;19908;-31
2023/01/10 15:30:05;;;;;;;;;;;;;;;;;;5114998;28;20250;-31
2023/01/10 15:32:31;;;;;;;;;;;;;;;;;;5114385;28;19915;-32
2023/01/10 15:34:57;;;;;;;;;;;;;;;;;;5096041;28;20009;-25
2023/01/10 15:37:24;;;;;;;;;;;;;;;;;;5114192;28;19976;-30
2023/01/10 15:39:50;;;;;;;;;;;;;;;;;;5114717;28;19916;-26
2023/01/10 15:42:18;;;;;;;;;;;;;;;;;;5114261;28;20006;-28
2023/01/10 15:44:44;;;;;;;;;;;;;;;;;;5114274;28;20227;-28
2023/01/10 15:47:10;;;;;;;;;;;;;;;;;;5114185;28;19918;-28
2023/01/10 15:49:36;;;;;;;;;;;;;;;;;;5114320;28;19912;-27
2023/01/10 15:52:02;;;;;;;;;;;;;;;;;;5096565;28;20014;-28
2023/01/10 15:54:28;;;;;;;;;;;;;;;;;;5114126;28;19922;-24
2023/01/10 15:56:55;;;;;;;;;;;;;;;;;;5114504;28;19907;-26
2023/01/10 15:59:21;;;;;;;;;;;;;;;;;;5117754;28;20302;-27
2023/01/10 16:01:47;;;;;;;;;;;;;;;;;;5117987;28;20318;-31
2023/01/10 16:04:14;;;;;;;;;;;;;;;;;;5100166;28;19908;-32
2023/01/10 16:06:41;;;;;;;;;;;;;;;;;;5118382;28;19912;-24
2023/01/10 16:09:07;;;;;;;;;;;;;;;;;;5119100;28;20245;-27
2023/01/10 16:14:17;;;;;;;;;;;;;;;;;;5118328;28;19915;-30
2023/01/10 16:16:43;;;;;;;;;;;;;;;;;;5117110;28;19915;-26
2023/01/10 16:19:09;;;;;;;;;;;;;;;;;;5117303;28;20053;-25
2023/01/10 16:21:35;;;;;;;;;;;;;;;;;;5117119;28;19934;-27
2023/01/10 16:24:01;;;;;;;;;;;;;;;;;;5117024;28;19908;-26
2023/01/10 16:26:27;;;;;;;;;;;;;;;;;;5116863;28;19991;-27
2023/01/10 16:28:53;;;;;;;;;;;;;;;;;;5117176;28;19933;-29
2023/01/10 16:31:19;;;;;;;;;;;;;;;;;;5117090;28;20245;-30
2023/01/10 16:33:45;;;;;;;;;;;;;;;;;;5116883;28;19912;-27
2023/01/10 16:36:11;;;;;;;;;;;;;;;;;;5116864;28;20253;-28
2023/01/10 16:38:37;;;;;;;;;;;;;;;;;;5117203;28;19908;-24
2023/01/10 16:43:16;;;;;;;;;;;;;;;;;;5117343;28;20299;-26
2023/01/10 16:43:50;;;;;;;;;;;;;;;;;;5117330;28;19919;-30
2023/01/10 16:46:16;;;;;;;;;;;;;;;;;;5117373;28;19916;-26
2023/01/10 16:48:46;;;;;;;;;;;;;;;;;;5118017;28;19911;-28
2023/01/10 16:51:12;;;;;;;;;;;;;;;;;;5117579;28;20249;-24
2023/01/10 16:53:38;;;;;;;;;;;;;;;;;;5117575;28;19915;-28
2023/01/10 16:56:04;;;;;;;;;;;;;;;;;;5117196;28;19935;-29
2023/01/10 16:58:30;;;;;;;;;;;;;;;;;;5117240;28;20338;-32
2023/01/10 17:00:57;;;;;;;;;;;;;;;;;;5117899;28;19911;-32
2023/01/10 17:03:23;;;;;;;;;;;;;;;;;;5117231;28;20322;-29